sensor_id;sensor_type;location;lat;lon;timestamp;pressure;altitude;pressure_sealevel;temperature;humidity
15487;BME280;7845;53.698;10.078;2024-01-06T00:02:01;100232.44;;;0.28;88.13
15487;BME280;7845;53.698;10.078;2024-01-06T00:04:27;100231.81;;;0.45;87.89
15487;BME280;7845;53.698;10.078;2024-01-06T00:06:52;100231.16;;;0.62;87.85
15487;BME280;7845;53.698;10.078;2024-01-06T00:09:17;100230.97;;;0.66;87.13
15487;BME280;7845;53.698;10.078;2024-01-06T00:11:43;100223.69;;;0.54;87.13
15487;BME280;7845;53.698;10.078;2024-01-06T00:14:08;100227.16;;;0.53;87.08
15487;BME280;7845;53.698;10.078;2024-01-06T00:16:34;100178.63;;;0.18;87.52
15487;BME280;7845;53.698;10.078;2024-01-06T00:18:59;100237.16;;;0.62;87.33
15487;BME280;7845;53.698;10.078;2024-01-06T00:21:26;100238.47;;;0.50;87.48
15487;BME280;7845;53.698;10.078;2024-01-06T00:23:54;100235.94;;;0.49;87.30
15487;BME280;7845;53.698;10.078;2024-01-06T00:26:21;100237.31;;;0.36;87.22
15487;BME280;7845;53.698;10.078;2024-01-06T00:28:46;100240.44;;;0.44;87.53
15487;BME280;7845;53.698;10.078;2024-01-06T00:31:17;100238.28;;;0.33;87.83
15487;BME280;7845;53.698;10.078;2024-01-06T00:33:42;100237.38;;;0.34;87.99
15487;BME280;7845;53.698;10.078;2024-01-06T00:36:11;100240.47;;;-0.03;88.36
15487;BME280;7845;53.698;10.078;2024-01-06T00:38:37;100243.06;;;0.21;89.19
15487;BME280;7845;53.698;10.078;2024-01-06T00:41:02;100233.53;;;-0.01;88.75
15487;BME280;7845;53.698;10.078;2024-01-06T00:43:31;100243.50;;;0.09;89.37
15487;BME280;7845;53.698;10.078;2024-01-06T00:45:56;100249.78;;;0.25;88.88
15487;BME280;7845;53.698;10.078;2024-01-06T00:48:24;100260.00;;;0.05;88.89
15487;BME280;7845;53.698;10.078;2024-01-06T00:50:49;100239.03;;;0.14;89.24
15487;BME280;7845;53.698;10.078;2024-01-06T00:53:17;100253.06;;;0.28;88.62
15487;BME280;7845;53.698;10.078;2024-01-06T00:55:42;100257.06;;;0.37;87.95
15487;BME280;7845;53.698;10.078;2024-01-06T00:58:08;100259.69;;;0.14;87.97
15487;BME280;7845;53.698;10.078;2024-01-06T01:00:36;100260.91;;;0.27;88.10
15487;BME280;7845;53.698;10.078;2024-01-06T01:03:02;100205.31;;;-0.28;88.38
15487;BME280;7845;53.698;10.078;2024-01-06T01:05:27;100267.97;;;-0.02;89.02
15487;BME280;7845;53.698;10.078;2024-01-06T01:07:52;100267.28;;;-0.07;88.95
15487;BME280;7845;53.698;10.078;2024-01-06T01:10:18;100266.38;;;-0.06;89.20
15487;BME280;7845;53.698;10.078;2024-01-06T01:12:43;100273.25;;;0.19;88.93
15487;BME280;7845;53.698;10.078;2024-01-06T01:15:11;100272.06;;;0.04;89.13
15487;BME280;7845;53.698;10.078;2024-01-06T01:17:43;100274.75;;;0.01;88.67
15487;BME280;7845;53.698;10.078;2024-01-06T01:20:12;100277.94;;;0.08;88.95
15487;BME280;7845;53.698;10.078;2024-01-06T01:22:37;100282.06;;;0.13;88.87
15487;BME280;7845;53.698;10.078;2024-01-06T01:25:09;100229.63;;;-0.11;88.31
15487;BME280;7845;53.698;10.078;2024-01-06T01:27:35;100285.53;;;0.12;88.33
15487;BME280;7845;53.698;10.078;2024-01-06T01:30:00;100173.06;;;-0.63;88.36
15487;BME280;7845;53.698;10.078;2024-01-06T01:32:31;100292.25;;;0.16;88.84
15487;BME280;7845;53.698;10.078;2024-01-06T01:34:57;100170.78;;;-0.72;88.13
15487;BME280;7845;53.698;10.078;2024-01-06T01:37:22;100297.69;;;0.09;88.54
15487;BME280;7845;53.698;10.078;2024-01-06T01:39:50;100299.78;;;0.22;88.60
15487;BME280;7845;53.698;10.078;2024-01-06T01:42:16;100249.56;;;-0.16;88.21
15487;BME280;7845;53.698;10.078;2024-01-06T01:44:41;100305.91;;;0.20;88.40
15487;BME280;7845;53.698;10.078;2024-01-06T01:47:07;100299.66;;;0.02;88.39
15487;BME280;7845;53.698;10.078;2024-01-06T01:49:32;100310.59;;;0.09;88.69
15487;BME280;7845;53.698;10.078;2024-01-06T01:51:58;100318.00;;;0.18;88.35
15487;BME280;7845;53.698;10.078;2024-01-06T01:54:27;100311.06;;;0.20;88.84
15487;BME280;7845;53.698;10.078;2024-01-06T01:56:53;100317.06;;;0.20;88.30
15487;BME280;7845;53.698;10.078;2024-01-06T01:59:21;100321.97;;;0.28;88.03
15487;BME280;7845;53.698;10.078;2024-01-06T02:01:47;100314.22;;;0.28;87.66
15487;BME280;7845;53.698;10.078;2024-01-06T02:04:13;100266.53;;;-0.10;88.27
15487;BME280;7845;53.698;10.078;2024-01-06T02:06:38;100321.25;;;-0.01;88.88
15487;BME280;7845;53.698;10.078;2024-01-06T02:09:03;100314.75;;;0.13;89.10
15487;BME280;7845;53.698;10.078;2024-01-06T02:11:32;100321.28;;;0.23;88.85
15487;BME280;7845;53.698;10.078;2024-01-06T02:13:57;100330.22;;;0.37;88.19
15487;BME280;7845;53.698;10.078;2024-01-06T02:16:22;100236.72;;;-0.42;87.96
15487;BME280;7845;53.698;10.078;2024-01-06T02:18:50;100334.97;;;0.25;88.52
15487;BME280;7845;53.698;10.078;2024-01-06T02:21:17;100334.88;;;0.28;88.15
15487;BME280;7845;53.698;10.078;2024-01-06T02:23:43;100354.06;;;0.21;88.24
15487;BME280;7845;53.698;10.078;2024-01-06T02:26:13;100346.34;;;0.19;88.04
15487;BME280;7845;53.698;10.078;2024-01-06T02:28:41;100344.13;;;0.10;88.49
15487;BME280;7845;53.698;10.078;2024-01-06T02:31:06;100340.56;;;0.13;88.08
15487;BME280;7845;53.698;10.078;2024-01-06T02:33:32;100345.25;;;0.02;88.35
15487;BME280;7845;53.698;10.078;2024-01-06T02:35:57;100341.41;;;0.13;88.42
15487;BME280;7845;53.698;10.078;2024-01-06T02:38:28;100348.25;;;0.14;88.33
15487;BME280;7845;53.698;10.078;2024-01-06T02:40:53;100348.41;;;0.34;88.14
15487;BME280;7845;53.698;10.078;2024-01-06T02:43:18;100354.50;;;0.32;87.90
15487;BME280;7845;53.698;10.078;2024-01-06T02:45:44;100297.00;;;-0.20;87.96
15487;BME280;7845;53.698;10.078;2024-01-06T02:48:12;100360.63;;;0.29;87.36
15487;BME280;7845;53.698;10.078;2024-01-06T02:50:37;100359.34;;;-0.07;88.05
15487;BME280;7845;53.698;10.078;2024-01-06T02:53:03;100367.22;;;-0.12;89.04
15487;BME280;7845;53.698;10.078;2024-01-06T02:55:28;100364.84;;;0.07;88.99
15487;BME280;7845;53.698;10.078;2024-01-06T02:57:54;100361.75;;;-0.03;88.95
15487;BME280;7845;53.698;10.078;2024-01-06T03:00:25;100363.06;;;0.09;88.31
15487;BME280;7845;53.698;10.078;2024-01-06T03:02:50;100373.69;;;0.25;88.47
15487;BME280;7845;53.698;10.078;2024-01-06T03:05:16;100377.31;;;0.19;87.90
15487;BME280;7845;53.698;10.078;2024-01-06T03:07:42;100380.13;;;0.13;88.52
15487;BME280;7845;53.698;10.078;2024-01-06T03:10:19;100384.91;;;0.24;88.08
15487;BME280;7845;53.698;10.078;2024-01-06T03:12:45;100386.91;;;0.16;88.10
15487;BME280;7845;53.698;10.078;2024-01-06T03:15:11;100381.75;;;0.16;87.78
15487;BME280;7845;53.698;10.078;2024-01-06T03:17:36;100386.06;;;0.15;87.71
15487;BME280;7845;53.698;10.078;2024-01-06T03:20:02;100386.03;;;0.17;87.90
15487;BME280;7845;53.698;10.078;2024-01-06T03:22:29;100379.75;;;-0.01;88.08
15487;BME280;7845;53.698;10.078;2024-01-06T03:24:54;100383.34;;;0.20;88.90
15487;BME280;7845;53.698;10.078;2024-01-06T03:27:19;100384.38;;;0.14;88.83
15487;BME280;7845;53.698;10.078;2024-01-06T03:29:45;100381.50;;;0.23;88.06
15487;BME280;7845;53.698;10.078;2024-01-06T03:32:10;100382.38;;;0.22;88.24
15487;BME280;7845;53.698;10.078;2024-01-06T03:34:35;100327.78;;;-0.15;88.11
15487;BME280;7845;53.698;10.078;2024-01-06T03:37:00;100385.28;;;0.13;88.54
15487;BME280;7845;53.698;10.078;2024-01-06T03:39:26;100381.13;;;0.09;88.51
15487;BME280;7845;53.698;10.078;2024-01-06T03:41:51;100387.63;;;0.21;88.33
15487;BME280;7845;53.698;10.078;2024-01-06T03:44:16;100388.25;;;0.27;88.00
15487;BME280;7845;53.698;10.078;2024-01-06T03:46:41;100388.44;;;0.21;87.80
15487;BME280;7845;53.698;10.078;2024-01-06T03:49:07;100389.38;;;0.19;88.17
15487;BME280;7845;53.698;10.078;2024-01-06T03:51:32;100283.63;;;-0.31;87.83
15487;BME280;7845;53.698;10.078;2024-01-06T03:53:57;100394.31;;;0.25;87.58
15487;BME280;7845;53.698;10.078;2024-01-06T03:56:23;100396.72;;;0.31;87.44
15487;BME280;7845;53.698;10.078;2024-01-06T03:58:48;100399.19;;;0.09;88.02
15487;BME280;7845;53.698;10.078;2024-01-06T04:01:13;100346.63;;;-0.13;87.79
15487;BME280;7845;53.698;10.078;2024-01-06T04:03:39;100346.72;;;-0.41;88.04
15487;BME280;7845;53.698;10.078;2024-01-06T04:06:07;100402.28;;;-0.06;88.26
15487;BME280;7845;53.698;10.078;2024-01-06T04:08:32;100420.06;;;0.03;88.60
15487;BME280;7845;53.698;10.078;2024-01-06T04:10:57;100392.66;;;-0.01;88.13
15487;BME280;7845;53.698;10.078;2024-01-06T04:13:23;100419.59;;;0.17;88.75
15487;BME280;7845;53.698;10.078;2024-01-06T04:15:56;100426.00;;;0.05;87.91
15487;BME280;7845;53.698;10.078;2024-01-06T04:18:21;100434.94;;;-0.05;89.19
15487;BME280;7845;53.698;10.078;2024-01-06T04:20:49;100427.22;;;-0.05;89.05
15487;BME280;7845;53.698;10.078;2024-01-06T04:23:14;100424.75;;;0.17;88.76
15487;BME280;7845;53.698;10.078;2024-01-06T04:25:40;100425.22;;;0.28;88.48
15487;BME280;7845;53.698;10.078;2024-01-06T04:28:05;100435.53;;;0.03;88.14
15487;BME280;7845;53.698;10.078;2024-01-06T04:30:30;100431.19;;;0.04;88.89
15487;BME280;7845;53.698;10.078;2024-01-06T04:33:04;100436.22;;;0.08;89.28
15487;BME280;7845;53.698;10.078;2024-01-06T04:35:30;100375.25;;;-0.45;88.81
15487;BME280;7845;53.698;10.078;2024-01-06T04:37:55;100437.41;;;-0.02;89.26
15487;BME280;7845;53.698;10.078;2024-01-06T04:40:20;100448.81;;;-0.08;89.33
15487;BME280;7845;53.698;10.078;2024-01-06T04:42:46;100445.31;;;-0.07;89.29
15487;BME280;7845;53.698;10.078;2024-01-06T04:45:14;100445.38;;;-0.08;89.15
15487;BME280;7845;53.698;10.078;2024-01-06T04:47:39;100457.66;;;0.10;89.44
15487;BME280;7845;53.698;10.078;2024-01-06T04:50:08;100462.38;;;0.24;88.97
15487;BME280;7845;53.698;10.078;2024-01-06T04:52:33;100465.19;;;0.16;88.38
15487;BME280;7845;53.698;10.078;2024-01-06T04:54:58;100471.47;;;0.09;88.27
15487;BME280;7845;53.698;10.078;2024-01-06T04:57:24;100466.28;;;0.09;88.63
15487;BME280;7845;53.698;10.078;2024-01-06T04:59:52;100393.47;;;-0.52;87.96
15487;BME280;7845;53.698;10.078;2024-01-06T05:02:17;100477.84;;;-0.03;88.66
15487;BME280;7845;53.698;10.078;2024-01-06T05:04:43;100485.25;;;0.08;88.73
15487;BME280;7845;53.698;10.078;2024-01-06T05:07:17;100478.84;;;-0.07;87.86
15487;BME280;7845;53.698;10.078;2024-01-06T05:09:42;100485.00;;;0.16;88.15
15487;BME280;7845;53.698;10.078;2024-01-06T05:12:08;100487.19;;;0.02;88.70
15487;BME280;7845;53.698;10.078;2024-01-06T05:14:34;100487.47;;;0.19;88.99
15487;BME280;7845;53.698;10.078;2024-01-06T05:17:02;100486.81;;;0.14;89.03
15487;BME280;7845;53.698;10.078;2024-01-06T05:19:27;100484.56;;;0.03;88.63
15487;BME280;7845;53.698;10.078;2024-01-06T05:21:57;100396.88;;;-0.49;88.63
15487;BME280;7845;53.698;10.078;2024-01-06T05:24:23;100480.28;;;0.02;88.07
15487;BME280;7845;53.698;10.078;2024-01-06T05:26:48;100503.22;;;0.11;88.63
15487;BME280;7845;53.698;10.078;2024-01-06T05:29:13;100446.34;;;-0.12;87.97
15487;BME280;7845;53.698;10.078;2024-01-06T05:31:38;100504.13;;;0.10;87.91
15487;BME280;7845;53.698;10.078;2024-01-06T05:34:04;100426.63;;;-0.39;88.49
15487;BME280;7845;53.698;10.078;2024-01-06T05:36:29;100504.25;;;0.06;89.05
15487;BME280;7845;53.698;10.078;2024-01-06T05:38:55;100512.75;;;0.09;88.59
15487;BME280;7845;53.698;10.078;2024-01-06T05:41:20;100514.72;;;0.01;88.61
15487;BME280;7845;53.698;10.078;2024-01-06T05:43:45;100523.47;;;-0.03;89.64
15487;BME280;7845;53.698;10.078;2024-01-06T05:46:11;100532.28;;;-0.10;89.85
15487;BME280;7845;53.698;10.078;2024-01-06T05:48:36;100524.53;;;-0.10;89.19
15487;BME280;7845;53.698;10.078;2024-01-06T05:51:04;100534.34;;;0.07;89.60
15487;BME280;7845;53.698;10.078;2024-01-06T05:53:30;100540.78;;;-0.07;89.18
15487;BME280;7845;53.698;10.078;2024-01-06T05:55:55;100531.94;;;0.00;90.00
15487;BME280;7845;53.698;10.078;2024-01-06T05:58:21;100529.22;;;0.05;89.14
15487;BME280;7845;53.698;10.078;2024-01-06T06:00:48;100548.03;;;0.09;89.06
15487;BME280;7845;53.698;10.078;2024-01-06T06:03:13;100558.81;;;-0.05;90.29
15487;BME280;7845;53.698;10.078;2024-01-06T06:05:39;100551.63;;;-0.23;90.09
15487;BME280;7845;53.698;10.078;2024-01-06T06:08:04;100562.88;;;0.02;90.58
15487;BME280;7845;53.698;10.078;2024-01-06T06:10:30;100574.38;;;0.18;89.83
15487;BME280;7845;53.698;10.078;2024-01-06T06:13:06;100579.75;;;0.12;89.26
15487;BME280;7845;53.698;10.078;2024-01-06T06:15:32;100528.28;;;-0.19;89.29
15487;BME280;7845;53.698;10.078;2024-01-06T06:17:57;100599.53;;;0.13;88.94
15487;BME280;7845;53.698;10.078;2024-01-06T06:20:28;100600.31;;;0.15;88.84
15487;BME280;7845;53.698;10.078;2024-01-06T06:22:53;100607.06;;;0.19;88.50
15487;BME280;7845;53.698;10.078;2024-01-06T06:25:21;100611.69;;;0.10;88.32
15487;BME280;7845;53.698;10.078;2024-01-06T06:27:47;100604.72;;;0.12;89.04
15487;BME280;7845;53.698;10.078;2024-01-06T06:30:15;100613.28;;;0.14;88.54
15487;BME280;7845;53.698;10.078;2024-01-06T06:32:41;100612.97;;;0.23;88.04
15487;BME280;7845;53.698;10.078;2024-01-06T06:35:07;100610.59;;;0.17;88.86
15487;BME280;7845;53.698;10.078;2024-01-06T06:37:32;100623.63;;;0.12;89.28
15487;BME280;7845;53.698;10.078;2024-01-06T06:39:58;100623.09;;;0.29;88.64
15487;BME280;7845;53.698;10.078;2024-01-06T06:42:23;100625.78;;;0.26;88.83
15487;BME280;7845;53.698;10.078;2024-01-06T06:44:48;100615.03;;;0.12;88.71
15487;BME280;7845;53.698;10.078;2024-01-06T06:47:14;100631.28;;;0.15;89.04
15487;BME280;7845;53.698;10.078;2024-01-06T06:49:39;100629.13;;;0.02;89.64
15487;BME280;7845;53.698;10.078;2024-01-06T06:52:04;100634.09;;;0.08;90.14
15487;BME280;7845;53.698;10.078;2024-01-06T06:54:32;100631.38;;;-0.16;90.51
15487;BME280;7845;53.698;10.078;2024-01-06T06:56:57;100585.94;;;-0.49;91.35
15487;BME280;7845;53.698;10.078;2024-01-06T06:59:22;100643.31;;;-0.13;92.30
15487;BME280;7845;53.698;10.078;2024-01-06T07:01:48;100647.28;;;-0.02;92.64
15487;BME280;7845;53.698;10.078;2024-01-06T07:04:13;100654.38;;;-0.08;91.87
15487;BME280;7845;53.698;10.078;2024-01-06T07:06:38;100659.97;;;-0.23;91.29
15487;BME280;7845;53.698;10.078;2024-01-06T07:09:04;100658.78;;;-0.12;91.95
15487;BME280;7845;53.698;10.078;2024-01-06T07:11:36;100665.78;;;-0.17;91.94
15487;BME280;7845;53.698;10.078;2024-01-06T07:14:01;100603.28;;;-0.54;92.23
15487;BME280;7845;53.698;10.078;2024-01-06T07:16:26;100669.03;;;-0.10;95.46
15487;BME280;7845;53.698;10.078;2024-01-06T07:18:52;100603.59;;;-0.35;94.72
15487;BME280;7845;53.698;10.078;2024-01-06T07:21:20;100670.41;;;0.02;92.62
15487;BME280;7845;53.698;10.078;2024-01-06T07:23:45;100658.19;;;-0.21;92.20
15487;BME280;7845;53.698;10.078;2024-01-06T07:26:10;100664.25;;;-0.22;92.06
15487;BME280;7845;53.698;10.078;2024-01-06T07:28:36;100669.00;;;-0.09;92.23
15487;BME280;7845;53.698;10.078;2024-01-06T07:31:01;100676.16;;;-0.18;91.58
15487;BME280;7845;53.698;10.078;2024-01-06T07:33:27;100684.25;;;-0.30;92.54
15487;BME280;7845;53.698;10.078;2024-01-06T07:35:52;100689.28;;;-0.26;92.21
15487;BME280;7845;53.698;10.078;2024-01-06T07:38:20;100689.97;;;-0.21;92.52
15487;BME280;7845;53.698;10.078;2024-01-06T07:40:45;100700.84;;;-0.10;92.14
15487;BME280;7845;53.698;10.078;2024-01-06T07:43:17;100712.38;;;-0.21;92.10
15487;BME280;7845;53.698;10.078;2024-01-06T07:45:45;100672.09;;;-0.27;93.16
15487;BME280;7845;53.698;10.078;2024-01-06T07:48:10;100713.16;;;-0.19;93.22
15487;BME280;7845;53.698;10.078;2024-01-06T07:50:36;100712.38;;;-0.21;93.44
15487;BME280;7845;53.698;10.078;2024-01-06T07:53:01;100725.28;;;-0.21;94.03
15487;BME280;7845;53.698;10.078;2024-01-06T07:55:26;100729.91;;;-0.34;93.76
15487;BME280;7845;53.698;10.078;2024-01-06T07:57:54;100726.16;;;-0.22;94.74
15487;BME280;7845;53.698;10.078;2024-01-06T08:00:19;100609.41;;;-0.89;93.31
15487;BME280;7845;53.698;10.078;2024-01-06T08:02:44;100736.06;;;-0.07;94.01
15487;BME280;7845;53.698;10.078;2024-01-06T08:05:10;100739.13;;;-0.25;93.19
15487;BME280;7845;53.698;10.078;2024-01-06T08:07:35;100754.47;;;-0.21;92.70
15487;BME280;7845;53.698;10.078;2024-01-06T08:10:01;100749.56;;;0.01;92.86
15487;BME280;7845;53.698;10.078;2024-01-06T08:12:32;100702.94;;;-0.22;92.13
15487;BME280;7845;53.698;10.078;2024-01-06T08:15:06;100714.25;;;-0.28;92.52
15487;BME280;7845;53.698;10.078;2024-01-06T08:17:32;100762.84;;;-0.13;92.13
15487;BME280;7845;53.698;10.078;2024-01-06T08:19:57;100768.78;;;-0.09;91.45
15487;BME280;7845;53.698;10.078;2024-01-06T08:22:23;100762.66;;;-0.05;90.94
15487;BME280;7845;53.698;10.078;2024-01-06T08:24:48;100757.13;;;0.07;90.67
15487;BME280;7845;53.698;10.078;2024-01-06T08:27:13;100774.75;;;-0.07;90.13
15487;BME280;7845;53.698;10.078;2024-01-06T08:29:42;100784.16;;;-0.06;89.69
15487;BME280;7845;53.698;10.078;2024-01-06T08:32:07;100699.72;;;-0.61;89.42
15487;BME280;7845;53.698;10.078;2024-01-06T08:34:32;100787.47;;;-0.01;89.11
15487;BME280;7845;53.698;10.078;2024-01-06T08:36:58;100750.16;;;-0.20;89.20
15487;BME280;7845;53.698;10.078;2024-01-06T08:39:23;100799.56;;;0.28;89.16
15487;BME280;7845;53.698;10.078;2024-01-06T08:41:49;100798.94;;;0.20;88.63
15487;BME280;7845;53.698;10.078;2024-01-06T08:44:15;100804.50;;;0.05;88.54
15487;BME280;7845;53.698;10.078;2024-01-06T08:46:46;100802.28;;;0.23;88.54
15487;BME280;7845;53.698;10.078;2024-01-06T08:49:11;100761.63;;;0.00;88.21
15487;BME280;7845;53.698;10.078;2024-01-06T08:51:36;100816.81;;;0.26;88.13
15487;BME280;7845;53.698;10.078;2024-01-06T08:54:01;100826.38;;;0.22;88.04
15487;BME280;7845;53.698;10.078;2024-01-06T08:56:30;100826.06;;;0.34;88.22
15487;BME280;7845;53.698;10.078;2024-01-06T08:58:55;100832.88;;;0.37;88.30
15487;BME280;7845;53.698;10.078;2024-01-06T09:01:22;100841.00;;;0.23;87.23
15487;BME280;7845;53.698;10.078;2024-01-06T09:03:47;100847.03;;;0.22;87.67
15487;BME280;7845;53.698;10.078;2024-01-06T09:06:13;100801.22;;;-0.01;87.77
15487;BME280;7845;53.698;10.078;2024-01-06T09:08:39;100852.22;;;0.22;88.55
15487;BME280;7845;53.698;10.078;2024-01-06T09:11:04;100861.38;;;0.32;88.05
15487;BME280;7845;53.698;10.078;2024-01-06T09:13:29;100860.88;;;0.50;88.26
15487;BME280;7845;53.698;10.078;2024-01-06T09:15:54;100866.03;;;0.50;87.90
15487;BME280;7845;53.698;10.078;2024-01-06T09:18:20;100868.50;;;0.55;87.48
15487;BME280;7845;53.698;10.078;2024-01-06T09:20:45;100872.84;;;0.24;87.57
15487;BME280;7845;53.698;10.078;2024-01-06T09:23:13;100881.84;;;0.40;87.91
15487;BME280;7845;53.698;10.078;2024-01-06T09:25:39;100874.75;;;0.16;87.96
15487;BME280;7845;53.698;10.078;2024-01-06T09:28:08;100839.09;;;-0.01;88.32
15487;BME280;7845;53.698;10.078;2024-01-06T09:30:33;100892.63;;;0.23;88.82
15487;BME280;7845;53.698;10.078;2024-01-06T09:32:59;100890.69;;;0.31;87.91
15487;BME280;7845;53.698;10.078;2024-01-06T09:35:24;100898.44;;;0.31;87.85
15487;BME280;7845;53.698;10.078;2024-01-06T09:37:49;100891.91;;;0.49;87.37
15487;BME280;7845;53.698;10.078;2024-01-06T09:40:23;100896.75;;;0.30;86.79
15487;BME280;7845;53.698;10.078;2024-01-06T09:42:49;100893.72;;;0.45;87.42
15487;BME280;7845;53.698;10.078;2024-01-06T09:45:15;100906.72;;;0.42;86.57
15487;BME280;7845;53.698;10.078;2024-01-06T09:47:41;100910.31;;;0.68;86.70
15487;BME280;7845;53.698;10.078;2024-01-06T09:50:08;100915.25;;;0.77;86.62
15487;BME280;7845;53.698;10.078;2024-01-06T09:52:39;100920.25;;;0.81;86.00
15487;BME280;7845;53.698;10.078;2024-01-06T09:55:10;100854.16;;;0.45;85.65
15487;BME280;7845;53.698;10.078;2024-01-06T09:57:36;100917.22;;;0.67;85.88
15487;BME280;7845;53.698;10.078;2024-01-06T10:00:02;100918.06;;;0.68;85.60
15487;BME280;7845;53.698;10.078;2024-01-06T10:02:29;100928.00;;;0.81;86.18
15487;BME280;7845;53.698;10.078;2024-01-06T10:04:57;100916.72;;;0.55;85.91
15487;BME280;7845;53.698;10.078;2024-01-06T10:07:22;100921.50;;;0.68;86.06
15487;BME280;7845;53.698;10.078;2024-01-06T10:09:47;100921.91;;;0.53;85.77
15487;BME280;7845;53.698;10.078;2024-01-06T10:12:13;100927.63;;;0.64;86.38
15487;BME280;7845;53.698;10.078;2024-01-06T10:14:41;100914.16;;;0.53;85.89
15487;BME280;7845;53.698;10.078;2024-01-06T10:17:07;100934.53;;;0.64;86.01
15487;BME280;7845;53.698;10.078;2024-01-06T10:19:35;100938.94;;;0.60;85.86
15487;BME280;7845;53.698;10.078;2024-01-06T10:22:03;100927.94;;;0.54;86.13
15487;BME280;7845;53.698;10.078;2024-01-06T10:24:37;100884.47;;;0.38;86.17
15487;BME280;7845;53.698;10.078;2024-01-06T10:27:03;100945.84;;;0.60;85.52
15487;BME280;7845;53.698;10.078;2024-01-06T10:29:34;100869.91;;;0.04;85.69
15487;BME280;7845;53.698;10.078;2024-01-06T10:31:59;100953.78;;;0.54;86.06
15487;BME280;7845;53.698;10.078;2024-01-06T10:34:25;100954.22;;;0.37;86.63
15487;BME280;7845;53.698;10.078;2024-01-06T10:36:51;100954.63;;;0.54;87.67
15487;BME280;7845;53.698;10.078;2024-01-06T10:39:20;100949.59;;;0.80;86.13
15487;BME280;7845;53.698;10.078;2024-01-06T10:41:48;100897.88;;;0.51;86.13
15487;BME280;7845;53.698;10.078;2024-01-06T10:44:17;100957.03;;;0.60;84.96
15487;BME280;7845;53.698;10.078;2024-01-06T10:46:44;100953.94;;;0.78;85.44
15487;BME280;7845;53.698;10.078;2024-01-06T10:49:14;100846.06;;;0.26;85.39
15487;BME280;7845;53.698;10.078;2024-01-06T10:51:44;100865.22;;;0.18;85.14
15487;BME280;7845;53.698;10.078;2024-01-06T10:54:11;100849.63;;;0.22;84.90
15487;BME280;7845;53.698;10.078;2024-01-06T10:56:42;100960.75;;;0.81;84.72
15487;BME280;7845;53.698;10.078;2024-01-06T10:59:08;100968.75;;;0.72;84.99
15487;BME280;7845;53.698;10.078;2024-01-06T11:01:34;100978.13;;;0.76;84.81
15487;BME280;7845;53.698;10.078;2024-01-06T11:04:04;100971.25;;;0.75;84.50
15487;BME280;7845;53.698;10.078;2024-01-06T11:06:37;100968.94;;;0.66;84.89
15487;BME280;7845;53.698;10.078;2024-01-06T11:09:24;100988.22;;;0.52;84.92
15487;BME280;7845;53.698;10.078;2024-01-06T11:11:53;100872.03;;;-0.11;84.87
15487;BME280;7845;53.698;10.078;2024-01-06T11:14:26;100980.28;;;0.60;84.88
15487;BME280;7845;53.698;10.078;2024-01-06T11:16:59;100978.44;;;0.65;84.76
15487;BME280;7845;53.698;10.078;2024-01-06T11:22:28;100979.41;;;0.60;86.25
15487;BME280;7845;53.698;10.078;2024-01-06T11:24:55;100982.34;;;0.78;85.90
15487;BME280;7845;53.698;10.078;2024-01-06T11:27:25;100973.88;;;0.42;87.50
15487;BME280;7845;53.698;10.078;2024-01-06T11:29:55;100983.78;;;0.59;88.13
15487;BME280;7845;53.698;10.078;2024-01-06T11:32:28;100979.97;;;0.71;87.92
15487;BME280;7845;53.698;10.078;2024-01-06T11:34:54;100975.94;;;0.62;87.68
15487;BME280;7845;53.698;10.078;2024-01-06T11:37:34;100985.03;;;0.43;87.15
15487;BME280;7845;53.698;10.078;2024-01-06T11:40:07;100986.91;;;0.38;87.30
15487;BME280;7845;53.698;10.078;2024-01-06T11:42:33;100913.97;;;-0.03;87.02
15487;BME280;7845;53.698;10.078;2024-01-06T11:45:04;100982.56;;;0.40;87.40
15487;BME280;7845;53.698;10.078;2024-01-06T11:47:33;100986.28;;;0.28;87.27
15487;BME280;7845;53.698;10.078;2024-01-06T11:49:59;100984.25;;;0.41;86.95
15487;BME280;7845;53.698;10.078;2024-01-06T11:52:26;100982.91;;;0.59;86.97
15487;BME280;7845;53.698;10.078;2024-01-06T11:54:54;100990.00;;;0.83;86.74
15487;BME280;7845;53.698;10.078;2024-01-06T11:57:20;100937.69;;;0.44;85.99
15487;BME280;7845;53.698;10.078;2024-01-06T11:59:46;100992.69;;;0.78;85.85
15487;BME280;7845;53.698;10.078;2024-01-06T12:02:12;100991.03;;;0.45;85.65
15487;BME280;7845;53.698;10.078;2024-01-06T12:04:38;100986.56;;;0.52;85.67
15487;BME280;7845;53.698;10.078;2024-01-06T12:07:07;100983.22;;;0.48;86.08
15487;BME280;7845;53.698;10.078;2024-01-06T12:09:32;100989.50;;;0.38;86.42
15487;BME280;7845;53.698;10.078;2024-01-06T12:12:02;100944.78;;;0.36;86.33
15487;BME280;7845;53.698;10.078;2024-01-06T12:14:27;100980.56;;;0.49;86.64
15487;BME280;7845;53.698;10.078;2024-01-06T12:16:53;100966.56;;;0.58;86.38
15487;BME280;7845;53.698;10.078;2024-01-06T12:19:20;100995.41;;;0.74;85.38
15487;BME280;7845;53.698;10.078;2024-01-06T12:21:45;100980.44;;;0.54;85.99
15487;BME280;7845;53.698;10.078;2024-01-06T12:24:21;100939.03;;;0.26;86.16
15487;BME280;7845;53.698;10.078;2024-01-06T12:26:46;100994.09;;;0.59;86.10
15487;BME280;7845;53.698;10.078;2024-01-06T12:29:13;100931.88;;;0.36;85.32
15487;BME280;7845;53.698;10.078;2024-01-06T12:31:39;100988.47;;;0.43;85.02
15487;BME280;7845;53.698;10.078;2024-01-06T12:34:08;100912.47;;;-0.11;85.61
15487;BME280;7845;53.698;10.078;2024-01-06T12:36:35;101001.78;;;0.62;85.92
15487;BME280;7845;53.698;10.078;2024-01-06T12:39:03;101000.78;;;0.34;86.48
15487;BME280;7845;53.698;10.078;2024-01-06T12:41:28;100964.88;;;0.25;86.48
15487;BME280;7845;53.698;10.078;2024-01-06T12:43:53;101012.28;;;0.22;86.36
15487;BME280;7845;53.698;10.078;2024-01-06T12:46:19;101012.47;;;0.48;87.08
15487;BME280;7845;53.698;10.078;2024-01-06T12:48:48;101022.19;;;0.71;86.43
15487;BME280;7845;53.698;10.078;2024-01-06T12:51:19;100998.72;;;0.46;85.95
15487;BME280;7845;53.698;10.078;2024-01-06T12:53:45;100979.41;;;0.29;85.60
15487;BME280;7845;53.698;10.078;2024-01-06T12:56:13;101031.81;;;0.66;85.91
15487;BME280;7845;53.698;10.078;2024-01-06T12:58:40;101023.19;;;0.66;85.34